Time;durP1;ratioP1;P1;durP2;ratioP2;P2;SDS_P1;SDS_P2;PMS_P1;PMS_P2;Temp;Humidity;BMP_temperature;BMP_pressure;BME280_temperature;BME280_humidity;BME280_pressure;Samples;Min_cycle;Max_cycle;Signal;HPM_P1;HPM_P2
2022/03/07 00:02:11;;;;;;;8.57;2.55;;;0.10;99.90;;;;;;4887282;29;20413;-44
2022/03/07 00:04:37;;;;;;;4.05;1.35;;;0.10;99.90;;;;;;4887353;29;20486;-45
2022/03/07 00:07:03;;;;;;;5.85;1.75;;;0.00;99.90;;;;;;4887063;29;20062;-45
2022/03/07 00:09:29;;;;;;;3.92;1.58;;;-0.10;99.90;;;;;;4887756;29;20048;-45
2022/03/07 00:11:55;;;;;;;5.55;2.30;;;-0.10;99.90;;;;;;4887835;29;20120;-45
2022/03/07 00:14:21;;;;;;;5.97;2.30;;;-0.20;99.90;;;;;;4890794;29;20060;-46
2022/03/07 00:16:47;;;;;;;5.88;2.30;;;-0.20;99.90;;;;;;4886515;29;20897;-50
2022/03/07 00:19:13;;;;;;;7.00;2.42;;;-0.20;99.90;;;;;;4886747;29;20423;-49
2022/03/07 00:21:39;;;;;;;4.32;2.65;;;-0.30;99.90;;;;;;4871417;29;20062;-45
2022/03/07 00:24:06;;;;;;;3.97;2.42;;;-0.30;99.90;;;;;;4886439;29;20049;-43
2022/03/07 00:26:32;;;;;;;5.93;2.83;;;-0.30;99.90;;;;;;4886007;29;20060;-46
2022/03/07 00:28:58;;;;;;;6.55;2.25;;;-0.30;99.90;;;;;;4885377;29;20060;-44
2022/03/07 00:31:23;;;;;;;4.88;2.10;;;-0.30;99.90;;;;;;4886393;29;20463;-46
2022/03/07 00:33:50;;;;;;;5.97;2.78;;;-0.30;99.90;;;;;;4884705;29;20051;-44
2022/03/07 00:36:17;;;;;;;10.45;3.28;;;-0.30;99.90;;;;;;4886851;29;20159;-45
2022/03/07 00:38:43;;;;;;;6.43;3.00;;;-0.30;99.90;;;;;;4886442;29;20063;-43
2022/03/07 00:41:09;;;;;;;8.93;2.83;;;-0.30;99.90;;;;;;4885337;29;20408;-45
2022/03/07 00:43:35;;;;;;;7.93;3.90;;;-0.40;99.90;;;;;;4867930;29;20051;-45
2022/03/07 00:46:02;;;;;;;5.53;2.67;;;-0.30;99.90;;;;;;4886052;29;20060;-45
2022/03/07 00:48:28;;;;;;;5.05;2.45;;;-0.40;99.90;;;;;;4886274;29;20060;-45
2022/03/07 00:50:54;;;;;;;4.88;2.60;;;-0.40;99.90;;;;;;4885761;29;20523;-48
2022/03/07 00:53:23;;;;;;;5.78;2.50;;;-0.40;99.90;;;;;;4886128;29;20099;-44
2022/03/07 00:55:50;;;;;;;5.13;2.63;;;-0.40;99.90;;;;;;4873472;29;20877;-45
2022/03/07 00:58:16;;;;;;;7.25;2.10;;;-0.50;99.90;;;;;;4889091;29;20059;-47
2022/03/07 01:00:42;;;;;;;9.25;2.47;;;-0.50;99.90;;;;;;4889155;29;20048;-47
2022/03/07 01:03:10;;;;;;;4.15;2.20;;;-0.50;99.90;;;;;;4885306;29;20132;-49
2022/03/07 01:05:36;;;;;;;5.18;2.72;;;-0.50;99.90;;;;;;4885963;29;20057;-46
2022/03/07 01:08:02;;;;;;;5.65;2.42;;;-0.60;99.90;;;;;;4891975;29;20048;-45
2022/03/07 01:10:28;;;;;;;5.25;2.47;;;-0.60;99.90;;;;;;4883301;29;20139;-45
2022/03/07 01:12:54;;;;;;;4.20;1.92;;;-0.60;99.90;;;;;;4886832;29;20171;-45
2022/03/07 01:15:20;;;;;;;5.93;2.03;;;-0.70;99.90;;;;;;4885431;29;20095;-43
2022/03/07 01:17:46;;;;;;;5.72;2.17;;;-0.70;99.90;;;;;;4887464;29;20487;-44
2022/03/07 01:20:12;;;;;;;6.45;2.30;;;-0.70;99.90;;;;;;4888298;29;20412;-44
2022/03/07 01:22:38;;;;;;;5.03;2.10;;;-0.80;99.90;;;;;;4888374;29;20903;-46
2022/03/07 01:25:05;;;;;;;4.07;1.80;;;-0.80;99.90;;;;;;4875026;29;20444;-49
2022/03/07 01:27:32;;;;;;;7.85;1.95;;;-0.80;99.90;;;;;;4881211;29;20048;-49
2022/03/07 01:29:58;;;;;;;6.50;2.35;;;-0.80;99.90;;;;;;4869285;29;20060;-44
2022/03/07 01:32:24;;;;;;;4.70;2.03;;;-0.80;99.90;;;;;;4872193;29;20044;-45
2022/03/07 01:34:50;;;;;;;4.60;1.85;;;-0.90;99.90;;;;;;4886202;29;20055;-45
2022/03/07 01:37:16;;;;;;;4.85;2.88;;;-0.90;99.90;;;;;;4884214;29;20044;-46
2022/03/07 01:39:42;;;;;;;6.07;1.67;;;-1.00;99.90;;;;;;4867259;29;20068;-46
2022/03/07 01:42:08;;;;;;;5.00;1.80;;;-1.00;99.90;;;;;;4884340;29;20092;-46
2022/03/07 01:44:34;;;;;;;4.70;1.42;;;-1.10;99.90;;;;;;4883724;29;20185;-44
2022/03/07 01:47:00;;;;;;;2.90;1.75;;;-1.10;99.90;;;;;;4885227;29;20111;-44
2022/03/07 01:49:27;;;;;;;8.45;2.42;;;-1.10;99.90;;;;;;4883697;29;20174;-44
2022/03/07 01:51:53;;;;;;;4.22;1.60;;;-1.10;99.90;;;;;;4884467;29;20675;-46
2022/03/07 01:54:20;;;;;;;9.00;3.08;;;-1.10;99.90;;;;;;4882674;29;20044;-44
2022/03/07 01:56:48;;;;;;;3.38;1.73;;;-1.10;99.90;;;;;;4882652;29;20496;-46
2022/03/07 01:59:18;;;;;;;3.35;1.73;;;-1.10;99.90;;;;;;4883414;29;20052;-46
2022/03/07 02:01:44;;;;;;;9.10;2.17;;;-1.10;99.90;;;;;;4880900;29;20446;-47
2022/03/07 02:04:10;;;;;;;5.38;2.08;;;-1.10;99.90;;;;;;4883945;29;20559;-45
2022/03/07 02:06:38;;;;;;;5.50;2.17;;;-1.10;99.90;;;;;;4883677;29;20060;-44
2022/03/07 02:09:05;;;;;;;7.43;2.58;;;-1.20;99.90;;;;;;4885501;29;20084;-46
2022/03/07 02:11:32;;;;;;;8.55;2.63;;;-1.10;99.90;;;;;;4884898;29;20080;-46
2022/03/07 02:14:09;;;;;;;4.80;2.55;;;-1.10;99.90;;;;;;4885024;29;20064;-46
2022/03/07 02:16:36;;;;;;;6.22;3.00;;;-1.10;99.90;;;;;;4884088;29;20472;-43
2022/03/07 02:19:02;;;;;;;5.10;2.03;;;-1.10;99.90;;;;;;4882717;29;20122;-44
2022/03/07 02:21:29;;;;;;;4.75;2.58;;;-1.10;99.90;;;;;;4868331;29;20191;-46
2022/03/07 02:23:55;;;;;;;6.18;2.55;;;-1.10;99.90;;;;;;4884662;29;20099;-45
2022/03/07 02:26:21;;;;;;;4.22;1.98;;;-1.20;99.90;;;;;;4883726;29;20139;-44
2022/03/07 02:28:47;;;;;;;6.65;2.25;;;-1.20;99.90;;;;;;4888073;29;20200;-45
2022/03/07 02:31:17;;;;;;;4.80;2.58;;;-1.30;99.90;;;;;;4885207;29;20048;-46
2022/03/07 02:33:43;;;;;;;7.22;3.28;;;-1.30;99.90;;;;;;4885599;29;20044;-47
2022/03/07 02:36:09;;;;;;;6.05;2.72;;;-1.30;99.90;;;;;;4887430;29;20048;-44
2022/03/07 02:38:35;;;;;;;8.20;3.13;;;-1.30;99.90;;;;;;4884346;29;20052;-46
2022/03/07 02:41:01;;;;;;;14.65;4.13;;;-1.30;99.90;;;;;;4866909;29;20064;-45
2022/03/07 02:43:27;;;;;;;5.20;3.28;;;-1.30;99.90;;;;;;4883802;29;20048;-44
2022/03/07 02:45:54;;;;;;;8.05;3.13;;;-1.40;99.90;;;;;;4882969;29;20091;-46
2022/03/07 02:48:20;;;;;;;6.50;2.80;;;-1.40;99.90;;;;;;4884695;29;20408;-44
2022/03/07 02:50:46;;;;;;;6.43;2.78;;;-1.40;99.90;;;;;;4883884;29;20059;-46
2022/03/07 02:53:12;;;;;;;8.40;2.80;;;-1.40;99.90;;;;;;4884013;29;20048;-44
2022/03/07 02:55:38;;;;;;;8.52;3.17;;;-1.50;99.90;;;;;;4883691;29;20048;-43
2022/03/07 02:58:04;;;;;;;9.43;3.25;;;-1.50;99.90;;;;;;4884788;29;20055;-45
2022/03/07 03:00:30;;;;;;;6.97;2.90;;;-1.50;99.90;;;;;;4885297;29;20632;-46
2022/03/07 03:02:56;;;;;;;9.85;3.38;;;-1.50;99.90;;;;;;4883595;29;20616;-45
2022/03/07 03:05:23;;;;;;;6.80;3.15;;;-1.50;99.90;;;;;;4882219;29;20052;-44
2022/03/07 03:07:50;;;;;;;12.63;3.78;;;-1.50;99.90;;;;;;4884950;29;20040;-45
2022/03/07 03:10:20;;;;;;;6.53;2.97;;;-1.50;99.90;;;;;;4884777;29;20099;-44
2022/03/07 03:12:47;;;;;;;8.00;3.25;;;-1.50;99.90;;;;;;4883512;29;20085;-45
2022/03/07 03:15:17;;;;;;;5.40;2.60;;;-1.50;99.90;;;;;;4882088;29;20067;-45
2022/03/07 03:17:44;;;;;;;10.90;3.42;;;-1.60;99.90;;;;;;4882966;29;20107;-44
2022/03/07 03:20:12;;;;;;;8.02;3.08;;;-1.50;99.90;;;;;;4881811;29;20127;-42
2022/03/07 03:22:39;;;;;;;6.18;2.95;;;-1.50;99.90;;;;;;4884309;29;20051;-47
2022/03/07 03:25:07;;;;;;;6.68;3.03;;;-1.60;99.90;;;;;;4883729;29;20044;-44
2022/03/07 03:27:34;;;;;;;7.72;4.00;;;-1.60;99.90;;;;;;4882672;29;20367;-47
2022/03/07 03:29:59;;;;;;;6.97;3.58;;;-1.60;99.90;;;;;;4884138;29;20048;-43
2022/03/07 03:32:27;;;;;;;6.30;2.83;;;-1.60;99.90;;;;;;4882870;29;20048;-46
2022/03/07 03:34:55;;;;;;;6.43;3.08;;;-1.60;99.90;;;;;;4886942;29;20056;-47
2022/03/07 03:37:26;;;;;;;6.55;2.95;;;-1.60;99.90;;;;;;4866547;29;20676;-44
2022/03/07 03:39:53;;;;;;;5.38;2.90;;;-1.60;99.90;;;;;;4879821;29;20060;-46
2022/03/07 03:42:19;;;;;;;11.98;3.97;;;-1.60;99.90;;;;;;4882741;29;20112;-46
2022/03/07 03:44:45;;;;;;;6.40;3.53;;;-1.70;99.90;;;;;;4881947;29;20088;-43
2022/03/07 03:47:11;;;;;;;8.23;3.03;;;-1.70;99.90;;;;;;4883279;29;20086;-43
2022/03/07 03:49:36;;;;;;;9.48;3.30;;;-1.70;99.90;;;;;;4872575;29;20053;-43
2022/03/07 03:52:03;;;;;;;6.18;2.78;;;-1.70;99.90;;;;;;4863339;29;20143;-47
2022/03/07 03:54:29;;;;;;;6.25;3.50;;;-1.70;99.90;;;;;;4886463;29;20193;-44
2022/03/07 03:56:54;;;;;;;7.15;3.45;;;-1.80;99.90;;;;;;4886070;29;20156;-44
2022/03/07 03:59:20;;;;;;;5.95;3.30;;;-1.80;99.90;;;;;;4879611;29;21555;-44
2022/03/07 04:01:46;;;;;;;5.65;3.42;;;-1.80;99.90;;;;;;4886973;29;20056;-45
2022/03/07 04:04:13;;;;;;;8.13;3.88;;;-1.80;99.90;;;;;;4875665;29;20056;-44
2022/03/07 04:06:40;;;;;;;7.15;3.28;;;-1.80;99.90;;;;;;4886038;29;20594;-44
2022/03/07 04:09:19;;;;;;;7.05;3.08;;;-1.80;99.90;;;;;;4885372;29;20068;-44
2022/03/07 04:11:45;;;;;;;9.88;3.47;;;-1.80;99.90;;;;;;4885278;29;20065;-44
2022/03/07 04:14:12;;;;;;;5.68;3.40;;;-1.90;99.90;;;;;;4884909;29;20055;-45
2022/03/07 04:16:38;;;;;;;5.40;3.38;;;-1.90;99.90;;;;;;4885455;29;20056;-46
2022/03/07 04:19:09;;;;;;;5.50;3.22;;;-1.80;99.90;;;;;;4884802;29;20144;-45
2022/03/07 04:21:40;;;;;;;6.20;3.10;;;-1.90;99.90;;;;;;4883919;29;20090;-44
2022/03/07 04:24:07;;;;;;;6.85;3.60;;;-1.90;99.90;;;;;;4886074;29;20530;-45
2022/03/07 04:26:33;;;;;;;8.45;3.22;;;-1.90;99.90;;;;;;4884446;29;20043;-44
2022/03/07 04:29:05;;;;;;;9.15;3.67;;;-1.90;99.90;;;;;;4869175;29;20056;-43
2022/03/07 04:31:32;;;;;;;8.98;3.60;;;-2.00;99.90;;;;;;4866573;29;20147;-47
2022/03/07 04:33:58;;;;;;;7.03;3.30;;;-2.00;99.90;;;;;;4882547;29;20093;-44
2022/03/07 04:36:24;;;;;;;8.95;3.30;;;-2.00;99.90;;;;;;4869643;29;20069;-45
2022/03/07 04:38:50;;;;;;;6.90;4.78;;;-2.00;99.90;;;;;;4885215;29;20076;-45
2022/03/07 04:41:15;;;;;;;9.25;3.70;;;-2.10;99.90;;;;;;4889848;29;20057;-45
2022/03/07 04:43:41;;;;;;;9.38;3.35;;;-2.10;99.90;;;;;;4887929;29;20115;-46
2022/03/07 04:46:08;;;;;;;9.38;3.60;;;-2.10;99.90;;;;;;4887275;29;20697;-45
2022/03/07 04:48:35;;;;;;;9.20;4.45;;;-2.10;99.90;;;;;;4884218;29;20869;-45
2022/03/07 04:51:00;;;;;;;9.23;3.30;;;-2.20;99.90;;;;;;4866600;29;20053;-44
2022/03/07 04:53:26;;;;;;;4.60;2.85;;;-2.20;99.90;;;;;;4884241;29;20044;-44
2022/03/07 04:55:53;;;;;;;6.07;3.28;;;-2.20;99.90;;;;;;4884466;29;20131;-46
2022/03/07 04:58:18;;;;;;;5.75;3.55;;;-2.30;99.90;;;;;;4885737;29;20114;-45
2022/03/07 05:00:44;;;;;;;5.75;3.90;;;-2.30;99.90;;;;;;4882162;29;20139;-45
2022/03/07 05:03:10;;;;;;;6.47;3.67;;;-2.30;99.90;;;;;;4882635;29;20055;-41
2022/03/07 05:05:35;;;;;;;7.22;4.10;;;-2.30;99.90;;;;;;4884367;29;20060;-46
2022/03/07 05:08:01;;;;;;;10.18;5.07;;;-2.30;99.90;;;;;;4882581;29;20048;-43
2022/03/07 05:10:27;;;;;;;5.80;3.42;;;-2.30;99.90;;;;;;4869043;29;20571;-45
2022/03/07 05:12:53;;;;;;;5.93;3.25;;;-2.40;99.90;;;;;;4884587;29;20168;-43
2022/03/07 05:15:19;;;;;;;4.70;2.97;;;-2.30;99.90;;;;;;4883081;29;20501;-46
2022/03/07 05:17:48;;;;;;;6.82;3.17;;;-2.30;99.90;;;;;;4870841;29;20067;-44
2022/03/07 05:20:16;;;;;;;5.72;3.33;;;-2.30;99.90;;;;;;4884479;29;20560;-44
2022/03/07 05:22:43;;;;;;;6.95;2.85;;;-2.30;99.90;;;;;;4885527;29;20115;-42
2022/03/07 05:25:12;;;;;;;7.07;3.47;;;-2.30;99.90;;;;;;4880792;29;20068;-45
2022/03/07 05:27:38;;;;;;;5.45;3.10;;;-2.30;99.90;;;;;;4884548;29;20057;-45
2022/03/07 05:30:06;;;;;;;5.03;3.03;;;-2.30;99.90;;;;;;4884545;29;20052;-45
2022/03/07 05:32:32;;;;;;;5.97;3.42;;;-2.30;99.90;;;;;;4865116;29;20056;-44
2022/03/07 05:34:58;;;;;;;5.38;3.30;;;-2.30;99.90;;;;;;4882673;29;20151;-44
2022/03/07 05:37:24;;;;;;;4.55;3.05;;;-2.30;99.90;;;;;;4884282;29;20359;-44
2022/03/07 05:39:51;;;;;;;5.78;3.53;;;-2.30;99.90;;;;;;4882441;29;20468;-47
2022/03/07 05:42:17;;;;;;;8.95;4.53;;;-2.30;99.90;;;;;;4883285;29;20056;-44
2022/03/07 05:44:43;;;;;;;5.80;3.47;;;-2.30;99.90;;;;;;4883762;29;20064;-41
2022/03/07 05:47:09;;;;;;;7.43;3.90;;;-2.30;99.90;;;;;;4871644;29;20100;-45
2022/03/07 05:49:34;;;;;;;7.13;3.97;;;-2.30;99.90;;;;;;4883102;29;20052;-46
2022/03/07 05:52:00;;;;;;;6.53;3.38;;;-2.30;99.90;;;;;;4885387;29;20049;-43
2022/03/07 05:54:26;;;;;;;5.40;3.60;;;-2.30;99.90;;;;;;4882739;29;20067;-44
2022/03/07 05:56:52;;;;;;;5.35;3.35;;;-2.30;99.90;;;;;;4881911;29;20049;-44
2022/03/07 05:59:18;;;;;;;6.10;3.33;;;-2.30;99.90;;;;;;4889267;29;20063;-45
2022/03/07 06:01:43;;;;;;;6.97;3.03;;;-2.30;99.90;;;;;;4891480;29;20048;-44
2022/03/07 06:04:09;;;;;;;5.78;3.20;;;-2.30;99.90;;;;;;4880732;29;20055;-45
2022/03/07 06:06:38;;;;;;;6.25;3.28;;;-2.30;99.90;;;;;;4884020;29;20055;-44
2022/03/07 06:09:04;;;;;;;7.57;3.33;;;-2.30;99.90;;;;;;4879899;29;20354;-44
2022/03/07 06:11:29;;;;;;;10.80;4.20;;;-2.30;99.90;;;;;;4861047;29;20075;-44
2022/03/07 06:13:55;;;;;;;7.43;3.50;;;-2.30;99.90;;;;;;4883315;29;20071;-46
2022/03/07 06:16:21;;;;;;;7.65;3.42;;;-2.20;99.90;;;;;;4882158;29;20072;-42
2022/03/07 06:18:47;;;;;;;8.27;3.63;;;-2.20;99.90;;;;;;4882978;29;20148;-43
2022/03/07 06:21:12;;;;;;;7.10;3.00;;;-2.20;99.90;;;;;;4881544;29;20120;-45
2022/03/07 06:23:38;;;;;;;8.63;3.88;;;-2.20;99.90;;;;;;4881784;29;20084;-42
2022/03/07 06:26:05;;;;;;;7.72;3.83;;;-2.10;99.90;;;;;;4865731;29;20064;-46
2022/03/07 06:28:32;;;;;;;8.10;3.55;;;-2.10;99.90;;;;;;4881805;29;20106;-43
2022/03/07 06:30:59;;;;;;;10.60;4.60;;;-2.10;99.90;;;;;;4883229;29;20492;-45
2022/03/07 06:33:25;;;;;;;9.52;5.97;;;-2.00;99.90;;;;;;4884271;29;20052;-45
2022/03/07 06:35:50;;;;;;;14.02;6.40;;;-1.90;99.90;;;;;;4881411;29;20483;-42
2022/03/07 06:38:17;;;;;;;10.90;5.78;;;-1.90;99.90;;;;;;4881655;29;20393;-44
2022/03/07 06:40:43;;;;;;;7.38;3.92;;;-1.80;99.90;;;;;;4885093;29;20048;-44
2022/03/07 06:43:09;;;;;;;7.93;4.78;;;-1.70;99.90;;;;;;4884125;29;20526;-43
2022/03/07 06:45:35;;;;;;;8.13;3.83;;;-1.60;99.90;;;;;;4881468;29;20079;-45
2022/03/07 06:48:01;;;;;;;8.90;3.88;;;-1.60;99.90;;;;;;4883882;29;20044;-46
2022/03/07 06:50:27;;;;;;;9.05;3.85;;;-1.50;99.90;;;;;;4883354;29;20083;-45
2022/03/07 06:52:53;;;;;;;8.48;4.47;;;-1.50;99.90;;;;;;4885956;29;20513;-44
2022/03/07 06:55:19;;;;;;;17.73;4.05;;;-1.30;99.90;;;;;;4894424;29;20055;-45
2022/03/07 06:57:45;;;;;;;11.93;4.28;;;-1.30;99.90;;;;;;4882162;29;20181;-44
2022/03/07 07:00:13;;;;;;;13.02;4.40;;;-1.10;99.90;;;;;;4885286;29;20127;-43
2022/03/07 07:02:40;;;;;;;14.68;5.68;;;-0.90;99.90;;;;;;4875795;29;20410;-45
2022/03/07 07:05:07;;;;;;;11.10;4.20;;;-0.60;99.90;;;;;;4868725;29;20538;-45
2022/03/07 07:07:33;;;;;;;9.45;4.10;;;-0.30;99.90;;;;;;4882427;29;20055;-45
2022/03/07 07:10:00;;;;;;;12.90;4.57;;;0.00;99.90;;;;;;4882597;29;20087;-43
2022/03/07 07:12:26;;;;;;;10.65;4.65;;;0.20;99.90;;;;;;4882575;29;20048;-45
2022/03/07 07:14:53;;;;;;;7.63;4.43;;;0.50;99.90;;;;;;4879277;29;20052;-46
2022/03/07 07:17:18;;;;;;;10.23;5.18;;;0.70;99.90;;;;;;4884152;29;20040;-44
2022/03/07 07:19:44;;;;;;;13.45;5.32;;;1.00;99.90;;;;;;4881283;29;20052;-45
2022/03/07 07:22:11;;;;;;;9.48;5.55;;;1.30;99.90;;;;;;4883587;29;20044;-48
2022/03/07 07:24:36;;;;;;;12.05;6.60;;;1.30;99.90;;;;;;4881479;29;20064;-49
2022/03/07 07:27:03;;;;;;;6.95;4.75;;;1.50;99.90;;;;;;4886801;29;20053;-50
2022/03/07 07:29:29;;;;;;;10.23;5.07;;;1.50;99.90;;;;;;4869640;29;20119;-47
2022/03/07 07:31:55;;;;;;;12.30;5.47;;;1.50;99.90;;;;;;4886936;29;20040;-44
2022/03/07 07:34:22;;;;;;;6.93;5.15;;;1.50;99.90;;;;;;4885904;29;20064;-45
2022/03/07 07:36:48;;;;;;;8.38;5.40;;;1.50;99.90;;;;;;4887037;29;20064;-44
2022/03/07 07:39:15;;;;;;;8.45;5.90;;;1.40;99.90;;;;;;4876567;29;20051;-45
2022/03/07 07:41:41;;;;;;;13.57;6.47;;;1.40;99.90;;;;;;4869443;29;20401;-45
2022/03/07 07:44:07;;;;;;;7.10;5.35;;;1.40;99.90;;;;;;4868735;29;20049;-44
2022/03/07 07:46:33;;;;;;;6.97;4.57;;;1.50;99.90;;;;;;4868655;29;20053;-47
2022/03/07 07:48:59;;;;;;;9.57;4.65;;;1.70;99.90;;;;;;4881957;29;20044;-45
2022/03/07 07:51:24;;;;;;;9.75;5.03;;;1.80;99.90;;;;;;4886594;29;20054;-45
2022/03/07 07:53:50;;;;;;;8.25;4.82;;;1.90;99.90;;;;;;4890288;29;20044;-41
2022/03/07 07:56:16;;;;;;;8.05;5.38;;;2.00;99.90;;;;;;4888154;29;20526;-47
2022/03/07 07:58:42;;;;;;;8.00;4.97;;;2.00;99.90;;;;;;4891840;29;20074;-45
2022/03/07 08:01:08;;;;;;;9.80;5.10;;;2.10;99.90;;;;;;4871096;29;20542;-45
2022/03/07 08:03:39;;;;;;;7.72;5.25;;;2.30;99.90;;;;;;4887087;29;20535;-46
2022/03/07 08:06:04;;;;;;;6.30;4.75;;;2.60;99.90;;;;;;4877108;29;20056;-46
2022/03/07 08:08:30;;;;;;;5.95;4.28;;;2.90;99.90;;;;;;4869535;29;20052;-46
2022/03/07 08:10:56;;;;;;;7.47;4.32;;;3.10;99.90;;;;;;4887498;29;20055;-45
2022/03/07 08:13:21;;;;;;;6.60;5.22;;;3.40;99.90;;;;;;4886475;29;20492;-47
2022/03/07 08:15:47;;;;;;;8.27;5.80;;;3.60;99.90;;;;;;4887339;29;20063;-45
2022/03/07 08:18:13;;;;;;;9.00;6.25;;;3.80;99.90;;;;;;4885335;29;20055;-45
2022/03/07 08:20:39;;;;;;;9.23;7.00;;;4.00;99.90;;;;;;4886518;29;20059;-47
2022/03/07 08:23:05;;;;;;;12.77;7.85;;;4.20;99.90;;;;;;4884531;29;20084;-48
2022/03/07 08:25:32;;;;;;;12.43;7.47;;;4.40;99.90;;;;;;4885434;29;20084;-47
2022/03/07 08:27:59;;;;;;;10.43;8.30;;;4.60;99.90;;;;;;4885582;29;20064;-45
2022/03/07 08:30:26;;;;;;;9.88;8.73;;;4.80;99.90;;;;;;4884683;29;20049;-46
2022/03/07 08:32:52;;;;;;;14.52;8.93;;;5.00;99.90;;;;;;4886184;29;20127;-45
2022/03/07 08:35:19;;;;;;;11.27;8.05;;;5.30;99.90;;;;;;4883833;29;20060;-47
2022/03/07 08:37:47;;;;;;;10.45;8.68;;;5.50;99.90;;;;;;4884917;29;20486;-45
2022/03/07 08:40:15;;;;;;;11.18;7.88;;;5.60;99.90;;;;;;4885170;29;20045;-44
2022/03/07 08:42:41;;;;;;;11.48;7.47;;;5.80;99.90;;;;;;4868758;29;20061;-46
2022/03/07 08:45:08;;;;;;;9.07;6.68;;;5.90;99.90;;;;;;4877011;29;20052;-46
2022/03/07 08:47:36;;;;;;;8.52;5.88;;;5.90;99.90;;;;;;4887010;29;20373;-47
2022/03/07 08:50:03;;;;;;;10.43;7.13;;;5.70;99.90;;;;;;4891319;29;20058;-47
2022/03/07 08:52:29;;;;;;;8.50;6.53;;;5.60;99.90;;;;;;4890649;29;20108;-45
2022/03/07 08:54:55;;;;;;;10.68;6.90;;;5.50;99.90;;;;;;4884273;29;20045;-46
2022/03/07 08:57:21;;;;;;;9.25;6.13;;;5.50;99.90;;;;;;4885898;29;20656;-46
2022/03/07 08:59:47;;;;;;;9.68;7.80;;;5.50;99.90;;;;;;4891785;29;22031;-45
2022/03/07 09:02:12;;;;;;;9.73;6.97;;;5.60;99.90;;;;;;4884371;29;20048;-46
2022/03/07 09:04:40;;;;;;;12.70;6.95;;;5.70;99.90;;;;;;4880681;29;20044;-46
2022/03/07 09:07:07;;;;;;;11.68;6.43;;;5.80;99.90;;;;;;4889173;29;20052;-47
2022/03/07 09:09:33;;;;;;;12.05;7.05;;;5.80;99.90;;;;;;4890985;29;20055;-48
2022/03/07 09:11:59;;;;;;;10.65;6.43;;;5.90;99.90;;;;;;4886122;29;20058;-47
2022/03/07 09:14:25;;;;;;;10.85;6.43;;;5.80;99.90;;;;;;4868198;29;20060;-47
2022/03/07 09:16:51;;;;;;;8.18;5.38;;;5.90;99.90;;;;;;4885791;29;20833;-45
2022/03/07 09:19:17;;;;;;;6.95;5.50;;;6.00;99.90;;;;;;4884614;29;20048;-46
2022/03/07 09:21:43;;;;;;;9.98;5.53;;;6.10;99.90;;;;;;4886977;29;20549;-47
2022/03/07 09:24:08;;;;;;;9.35;5.97;;;6.20;99.90;;;;;;4892430;29;20522;-45
2022/03/07 09:26:34;;;;;;;10.50;5.22;;;6.10;99.90;;;;;;4883619;29;20056;-49
2022/03/07 09:29:00;;;;;;;9.02;5.43;;;6.00;99.90;;;;;;4884442;29;20122;-49
2022/03/07 09:31:26;;;;;;;7.68;5.47;;;6.10;99.90;;;;;;4892798;29;20071;-48
2022/03/07 09:33:52;;;;;;;8.43;5.15;;;6.20;99.90;;;;;;4890883;29;20076;-48
2022/03/07 09:36:18;;;;;;;5.50;4.85;;;6.30;99.90;;;;;;4872711;29;20072;-47
2022/03/07 09:38:44;;;;;;;9.95;6.38;;;6.40;99.90;;;;;;4890866;29;20096;-46
2022/03/07 09:41:10;;;;;;;7.28;5.43;;;6.40;99.90;;;;;;4896244;29;20080;-45
2022/03/07 09:43:36;;;;;;;8.15;4.72;;;6.50;99.90;;;;;;4892540;29;20048;-47
2022/03/07 09:46:03;;;;;;;6.60;4.70;;;6.60;99.90;;;;;;4890863;29;20052;-48
2022/03/07 09:48:30;;;;;;;5.40;3.40;;;6.60;99.90;;;;;;4890870;29;20523;-49
2022/03/07 09:50:56;;;;;;;5.95;2.80;;;6.70;99.90;;;;;;4872353;29;20068;-48
2022/03/07 09:53:23;;;;;;;5.93;3.35;;;6.80;99.90;;;;;;4891735;29;20510;-46
2022/03/07 09:55:50;;;;;;;6.28;3.72;;;6.90;99.90;;;;;;4889456;29;20088;-46
2022/03/07 09:58:16;;;;;;;7.35;4.15;;;6.90;99.90;;;;;;4892132;29;20111;-46
2022/03/07 10:00:43;;;;;;;5.50;3.75;;;7.00;99.90;;;;;;4875338;29;20106;-47
2022/03/07 10:03:11;;;;;;;6.30;4.57;;;6.90;99.90;;;;;;4893930;29;20036;-46
2022/03/07 10:05:45;;;;;;;8.43;5.00;;;6.80;99.90;;;;;;4889077;29;20412;-48
2022/03/07 10:08:31;;;;;;;8.85;4.40;;;6.80;99.90;;;;;;4894085;29;20608;-46
2022/03/07 10:10:57;;;;;;;7.45;4.50;;;6.80;99.90;;;;;;4891238;29;20118;-47
2022/03/07 10:13:26;;;;;;;8.88;5.13;;;6.80;99.90;;;;;;4890197;29;20052;-47
2022/03/07 10:16:01;;;;;;;7.18;4.88;;;6.90;99.90;;;;;;4889077;29;20099;-46
2022/03/07 10:18:29;;;;;;;5.63;4.57;;;7.10;99.90;;;;;;4895959;29;20056;-47
2022/03/07 10:20:58;;;;;;;6.75;4.68;;;7.10;99.90;;;;;;4887380;29;20143;-47
2022/03/07 10:23:27;;;;;;;8.20;5.10;;;7.10;99.90;;;;;;4891723;29;20052;-47
2022/03/07 10:26:08;;;;;;;7.35;4.47;;;7.20;99.90;;;;;;4874292;29;20092;-46
2022/03/07 10:28:38;;;;;;;7.00;4.85;;;7.20;99.90;;;;;;4890199;29;20745;-48
2022/03/07 10:31:17;;;;;;;9.00;5.70;;;7.20;99.90;;;;;;4887481;29;20508;-49
2022/03/07 10:33:45;;;;;;;7.10;5.22;;;7.30;99.90;;;;;;4887742;29;20095;-52
2022/03/07 10:36:11;;;;;;;11.30;5.53;;;7.30;99.90;;;;;;4891083;29;20052;-48
2022/03/07 10:38:37;;;;;;;5.97;5.35;;;7.30;99.90;;;;;;4890576;29;20057;-48
2022/03/07 10:41:04;;;;;;;8.02;5.60;;;7.20;99.90;;;;;;4889983;29;20064;-51
2022/03/07 10:43:31;;;;;;;8.82;5.80;;;7.10;99.90;;;;;;4889439;29;20048;-52
2022/03/07 10:46:00;;;;;;;8.13;5.85;;;7.20;99.90;;;;;;4887989;29;20052;-48
2022/03/07 10:48:28;;;;;;;9.43;6.43;;;7.20;99.90;;;;;;4890818;29;20504;-48
2022/03/07 10:50:57;;;;;;;8.93;5.63;;;7.20;99.90;;;;;;4886964;29;20131;-47
2022/03/07 10:53:24;;;;;;;11.93;8.23;;;7.30;99.90;;;;;;4891097;29;20052;-44
2022/03/07 10:55:53;;;;;;;8.40;5.57;;;7.50;99.90;;;;;;4860299;29;20415;-50
2022/03/07 10:58:22;;;;;;;7.65;5.10;;;7.60;99.90;;;;;;4887845;29;20494;-46
2022/03/07 11:00:49;;;;;;;8.65;5.60;;;7.70;99.90;;;;;;4890095;29;20104;-48
2022/03/07 11:03:23;;;;;;;8.00;5.00;;;7.70;99.90;;;;;;4887685;29;20084;-49
2022/03/07 11:05:50;;;;;;;8.00;5.03;;;7.80;99.90;;;;;;4889783;29;20124;-47
2022/03/07 11:08:20;;;;;;;8.13;5.32;;;8.00;99.90;;;;;;4894019;29;20199;-48
2022/03/07 11:10:48;;;;;;;7.28;5.45;;;8.00;99.90;;;;;;4891103;29;20548;-45
2022/03/07 11:13:26;;;;;;;8.90;5.55;;;8.20;99.90;;;;;;4880913;29;20095;-46
2022/03/07 11:15:55;;;;;;;9.32;5.80;;;8.40;99.90;;;;;;4894865;29;20571;-50
2022/03/07 11:18:22;;;;;;;8.77;5.60;;;8.60;99.90;;;;;;4893774;29;20112;-46
2022/03/07 11:20:49;;;;;;;7.20;5.10;;;8.70;99.90;;;;;;4876227;29;20590;-48
2022/03/07 11:23:17;;;;;;;8.32;5.63;;;8.80;99.90;;;;;;4888375;29;20048;-48
2022/03/07 11:25:45;;;;;;;6.45;5.20;;;8.80;99.90;;;;;;4887503;29;20071;-48
2022/03/07 11:28:12;;;;;;;9.23;6.57;;;8.90;99.90;;;;;;4888601;29;20123;-48
2022/03/07 11:30:42;;;;;;;7.38;5.45;;;9.00;99.90;;;;;;4898528;29;20065;-49
2022/03/07 11:33:09;;;;;;;8.40;5.78;;;9.10;99.90;;;;;;4886857;29;20736;-49
2022/03/07 11:35:35;;;;;;;10.38;5.57;;;9.10;99.90;;;;;;4894348;29;20102;-48
2022/03/07 11:38:17;;;;;;;8.88;4.05;;;9.00;99.90;;;;;;4894858;29;20052;-52
2022/03/07 11:41:10;;;;;;;5.53;2.90;;;8.90;99.90;;;;;;4895288;29;20483;-49
2022/03/07 11:43:53;;;;;;;;;;;8.80;99.90;;;;;;4889746;29;20052;-53
2022/03/07 11:46:35;;;;;;;6.57;3.80;;;8.70;99.90;;;;;;4893763;29;19931;-49
2022/03/07 11:49:04;;;;;;;6.38;3.22;;;8.60;99.90;;;;;;4876980;29;20064;-47
2022/03/07 11:51:31;;;;;;;7.20;3.30;;;8.50;99.90;;;;;;4892508;29;20609;-47
2022/03/07 11:53:58;;;;;;;5.90;3.42;;;8.40;99.90;;;;;;4889234;29;20067;-49
2022/03/07 11:56:27;;;;;;;4.93;3.28;;;8.40;99.90;;;;;;4890668;29;20491;-48
2022/03/07 11:58:56;;;;;;;7.75;3.40;;;8.40;99.90;;;;;;4886350;29;20044;-48
2022/03/07 12:01:24;;;;;;;5.15;3.28;;;8.20;99.90;;;;;;4893183;29;20048;-49
2022/03/07 12:03:50;;;;;;;5.00;3.28;;;8.10;99.90;;;;;;4885958;29;20051;-48
2022/03/07 12:06:19;;;;;;;4.40;3.00;;;8.00;99.90;;;;;;4887090;29;20044;-49
2022/03/07 12:08:53;;;;;;;5.55;3.10;;;7.90;99.90;;;;;;4890701;29;20115;-48
2022/03/07 12:11:29;;;;;;;10.25;3.90;;;7.70;99.90;;;;;;4888525;29;20547;-49
2022/03/07 12:14:02;;;;;;;4.80;2.67;;;7.60;99.90;;;;;;4870637;29;20060;-51
2022/03/07 12:16:49;;;;;;;2.88;2.05;;;7.60;99.90;;;;;;4883364;29;20374;-50
2022/03/07 12:19:22;;;;;;;4.93;2.83;;;7.80;99.90;;;;;;4894318;29;20126;-51
2022/03/07 12:21:48;;;;;;;;;;;8.00;99.90;;;;;;4887610;29;20063;-50
2022/03/07 12:24:16;;;;;;;5.03;3.10;;;8.10;99.90;;;;;;4893015;29;20010;-47
2022/03/07 12:26:42;;;;;;;7.75;3.25;;;8.30;99.90;;;;;;4889812;29;20075;-47
2022/03/07 12:29:08;;;;;;;4.10;2.40;;;8.40;99.90;;;;;;4889446;29;20052;-49
2022/03/07 12:31:34;;;;;;;4.90;3.10;;;8.40;99.90;;;;;;4893891;29;20095;-47
2022/03/07 12:34:00;;;;;;;6.82;3.38;;;8.60;99.90;;;;;;4888289;29;20609;-45
2022/03/07 12:36:26;;;;;;;4.70;2.58;;;8.80;99.90;;;;;;4886799;29;20048;-49
2022/03/07 12:38:54;;;;;;;3.47;2.10;;;8.90;99.90;;;;;;4890279;29;20044;-50
2022/03/07 12:41:36;;;;;;;6.95;2.78;;;8.90;99.90;;;;;;4868827;29;20049;-49
2022/03/07 12:44:04;;;;;;;4.18;2.38;;;8.70;99.90;;;;;;4892747;29;20507;-48
2022/03/07 12:46:33;;;;;;;3.67;2.25;;;8.60;99.90;;;;;;4893002;29;20098;-49
2022/03/07 12:48:59;;;;;;;7.75;2.83;;;8.50;99.90;;;;;;4893907;29;20142;-48
2022/03/07 12:51:26;;;;;;;6.35;2.63;;;8.50;99.90;;;;;;4876435;29;20689;-47